Time;durP1;ratioP1;P1;durP2;ratioP2;P2;SDS_P1;SDS_P2;PMS_P1;PMS_P2;Temp;Humidity;BMP_temperature;BMP_pressure;BME280_temperature;BME280_humidity;BME280_pressure;Samples;Min_cycle;Max_cycle;Signal;HPM_P1;HPM_P2
2021/04/20 00:01:28;;;;;;;1.83;1.73;;;18.80;44.00;;;;;;5132586;27;20536;-38
2021/04/20 00:03:55;;;;;;;2.30;1.83;;;18.90;44.10;;;;;;5133644;27;20490;-37
2021/04/20 00:06:22;;;;;;;2.28;1.92;;;18.80;44.00;;;;;;5132511;27;20050;-37
2021/04/20 00:08:49;;;;;;;2.03;1.77;;;18.80;44.00;;;;;;5131548;27;20071;-37
2021/04/20 00:11:15;;;;;;;1.83;1.67;;;18.80;44.00;;;;;;5132387;27;20077;-38
2021/04/20 00:13:42;;;;;;;2.33;1.83;;;18.80;44.00;;;;;;5094142;28;20090;-37
2021/04/20 00:16:08;;;;;;;2.33;1.80;;;18.80;44.00;;;;;;5110924;28;20043;-38
2021/04/20 00:18:35;;;;;;;2.45;1.98;;;18.80;44.00;;;;;;5111916;28;20130;-37
2021/04/20 00:21:04;;;;;;;1.85;1.70;;;18.80;44.00;;;;;;5114450;28;20492;-37
2021/04/20 00:23:30;;;;;;;2.10;1.90;;;18.80;44.00;;;;;;5111998;28;20468;-37
2021/04/20 00:25:57;;;;;;;2.25;1.73;;;18.80;44.00;;;;;;5113080;28;20048;-37
2021/04/20 00:28:28;;;;;;;1.90;1.58;;;18.80;44.00;;;;;;5112483;28;20498;-38
2021/04/20 00:30:55;;;;;;;2.10;1.77;;;18.80;44.00;;;;;;5112140;28;20044;-38
2021/04/20 00:33:22;;;;;;;2.10;1.60;;;18.80;44.00;;;;;;5111755;28;20047;-38
2021/04/20 00:35:49;;;;;;;2.25;1.83;;;18.80;44.00;;;;;;5113357;28;20048;-38
2021/04/20 00:38:16;;;;;;;1.98;1.60;;;18.80;44.00;;;;;;5113063;28;20100;-37
2021/04/20 00:40:43;;;;;;;2.40;1.80;;;18.80;44.00;;;;;;5113701;28;20079;-38
2021/04/20 00:43:10;;;;;;;1.77;1.60;;;18.80;44.00;;;;;;5113016;28;20066;-37
2021/04/20 00:45:38;;;;;;;2.30;2.05;;;18.90;44.10;;;;;;5112271;28;20043;-37
2021/04/20 00:48:06;;;;;;;1.60;1.50;;;18.80;44.00;;;;;;5106078;28;20040;-38
2021/04/20 00:50:39;;;;;;;1.73;1.63;;;18.80;44.00;;;;;;5097198;28;20048;-37
2021/04/20 00:53:08;;;;;;;1.60;1.50;;;18.80;44.00;;;;;;5097131;28;20048;-37
2021/04/20 00:55:35;;;;;;;1.75;1.60;;;18.80;44.00;;;;;;5102353;28;20519;-38
2021/04/20 00:58:03;;;;;;;2.10;1.85;;;18.80;44.00;;;;;;5108810;28;20462;-38
2021/04/20 01:00:32;;;;;;;2.35;2.00;;;18.80;44.30;;;;;;5097945;28;20073;-38
2021/04/20 01:03:00;;;;;;;1.83;1.63;;;18.80;44.00;;;;;;5110215;28;20042;-38
2021/04/20 01:05:35;;;;;;;1.80;1.70;;;18.80;44.00;;;;;;5111217;28;20093;-38
2021/04/20 01:08:07;;;;;;;2.05;1.85;;;18.80;44.00;;;;;;5113183;28;20121;-38
2021/04/20 01:10:38;;;;;;;2.42;1.88;;;18.80;44.00;;;;;;5111113;28;20036;-38
2021/04/20 01:13:05;;;;;;;2.10;1.63;;;18.80;44.00;;;;;;5096615;28;20044;-38
2021/04/20 01:15:33;;;;;;;1.50;1.40;;;18.80;44.00;;;;;;5112896;27;20081;-37
2021/04/20 01:18:22;;;;;;;1.90;1.60;;;18.80;44.00;;;;;;5134047;27;20074;-37
2021/04/20 01:20:55;;;;;;;2.15;1.80;;;18.80;44.00;;;;;;5118062;27;20394;-37
2021/04/20 01:23:40;;;;;;;1.85;1.70;;;18.80;44.00;;;;;;5132234;27;20091;-37
2021/04/20 01:26:08;;;;;;;2.05;1.80;;;18.80;44.00;;;;;;5133777;27;20107;-37
2021/04/20 01:28:36;;;;;;;2.03;1.80;;;18.80;44.00;;;;;;5130781;27;20075;-38
2021/04/20 01:31:04;;;;;;;2.40;1.77;;;18.80;44.00;;;;;;5132293;27;20087;-38
2021/04/20 01:33:31;;;;;;;1.80;1.60;;;18.80;44.60;;;;;;5133326;27;20119;-38
2021/04/20 01:35:58;;;;;;;2.20;1.70;;;18.80;44.00;;;;;;5133152;27;20036;-38
2021/04/20 01:38:29;;;;;;;2.03;1.67;;;18.80;44.00;;;;;;5115574;27;20083;-38
2021/04/20 01:40:59;;;;;;;2.05;1.58;;;18.80;44.00;;;;;;5095222;28;20048;-38
2021/04/20 01:43:26;;;;;;;2.40;1.92;;;18.80;44.00;;;;;;5131235;27;20078;-38
2021/04/20 01:45:52;;;;;;;2.10;1.85;;;18.80;44.00;;;;;;5114831;27;20047;-38
2021/04/20 01:48:19;;;;;;;2.05;1.75;;;18.80;44.00;;;;;;5115559;27;20100;-38
2021/04/20 01:50:46;;;;;;;2.10;1.65;;;18.80;44.00;;;;;;5116165;27;20044;-38
2021/04/20 01:53:13;;;;;;;1.92;1.73;;;18.80;44.00;;;;;;5115331;27;20079;-37
2021/04/20 01:55:39;;;;;;;1.60;1.35;;;18.80;44.00;;;;;;5115018;27;20599;-37
2021/04/20 01:58:07;;;;;;;1.67;1.58;;;18.90;44.10;;;;;;5116509;27;20167;-38
2021/04/20 02:00:37;;;;;;;2.00;1.70;;;18.80;44.00;;;;;;5126174;27;20514;-37
2021/04/20 02:03:04;;;;;;;1.75;1.60;;;18.80;44.00;;;;;;5129330;27;20047;-38
2021/04/20 02:05:31;;;;;;;1.63;1.52;;;18.80;44.00;;;;;;5130317;27;20506;-37
2021/04/20 02:07:59;;;;;;;2.15;1.70;;;18.80;44.00;;;;;;5114893;28;20043;-38
2021/04/20 02:10:26;;;;;;;2.22;1.73;;;18.80;44.00;;;;;;5133063;27;20081;-38
2021/04/20 02:12:53;;;;;;;1.90;1.60;;;18.80;44.00;;;;;;5130382;27;20423;-38
2021/04/20 02:15:20;;;;;;;2.10;1.85;;;18.80;44.00;;;;;;5131597;27;20134;-37
2021/04/20 02:17:48;;;;;;;1.80;1.70;;;18.80;44.00;;;;;;5130485;28;20440;-38
2021/04/20 02:20:15;;;;;;;2.05;1.80;;;18.80;44.00;;;;;;5130291;28;20047;-38
2021/04/20 02:22:45;;;;;;;2.30;1.77;;;18.80;44.00;;;;;;5113238;28;20500;-38
2021/04/20 02:25:16;;;;;;;2.00;1.70;;;18.80;44.00;;;;;;5130493;28;20047;-38
2021/04/20 02:27:43;;;;;;;2.00;1.60;;;18.80;44.00;;;;;;5125975;28;20080;-38
2021/04/20 02:30:12;;;;;;;1.77;1.60;;;18.80;44.00;;;;;;5119550;28;20051;-38
2021/04/20 02:32:40;;;;;;;2.22;1.63;;;18.80;44.00;;;;;;5131374;28;20532;-38
2021/04/20 02:35:10;;;;;;;2.15;1.60;;;18.80;44.20;;;;;;5127374;28;20046;-38
2021/04/20 02:37:38;;;;;;;2.90;1.85;;;18.80;44.00;;;;;;5115616;28;20039;-38
2021/04/20 02:40:07;;;;;;;2.05;1.77;;;18.80;44.00;;;;;;5112750;28;20047;-38
2021/04/20 02:42:34;;;;;;;1.80;1.70;;;18.80;44.00;;;;;;5132126;28;20461;-38
2021/04/20 02:45:03;;;;;;;2.33;1.90;;;18.80;44.00;;;;;;5132641;28;20051;-38
2021/04/20 02:47:30;;;;;;;2.03;1.75;;;18.80;44.00;;;;;;5110930;28;20564;-37
2021/04/20 02:49:59;;;;;;;1.88;1.70;;;18.80;44.00;;;;;;5113700;28;20047;-38
2021/04/20 02:52:26;;;;;;;1.95;1.65;;;18.80;44.00;;;;;;5113556;28;20039;-37
2021/04/20 02:54:59;;;;;;;2.08;1.80;;;18.80;44.00;;;;;;5113653;28;20067;-38
2021/04/20 02:57:29;;;;;;;1.98;1.77;;;18.80;44.00;;;;;;5129717;28;20051;-38
2021/04/20 02:59:57;;;;;;;2.28;1.70;;;18.80;44.00;;;;;;5129725;28;20043;-38
2021/04/20 03:02:24;;;;;;;2.35;1.88;;;18.80;44.00;;;;;;5113021;28;20088;-38
2021/04/20 03:04:52;;;;;;;1.90;1.70;;;18.80;44.00;;;;;;5129770;28;20575;-38
2021/04/20 03:07:19;;;;;;;2.35;1.65;;;18.80;44.00;;;;;;5118670;28;20047;-41
2021/04/20 03:09:47;;;;;;;1.90;1.73;;;18.80;44.00;;;;;;5128365;28;20086;-38
2021/04/20 03:12:14;;;;;;;2.08;1.80;;;18.80;44.00;;;;;;5129783;28;20043;-38
2021/04/20 03:14:42;;;;;;;1.67;1.45;;;18.80;44.00;;;;;;5128484;28;20073;-38
2021/04/20 03:17:08;;;;;;;2.25;1.70;;;18.80;44.00;;;;;;5131203;28;20039;-38
2021/04/20 03:19:35;;;;;;;1.70;1.50;;;18.80;44.00;;;;;;5128333;28;20039;-37
2021/04/20 03:22:02;;;;;;;2.05;1.75;;;18.80;44.00;;;;;;5130021;28;20078;-38
2021/04/20 03:24:32;;;;;;;3.03;1.92;;;18.80;44.00;;;;;;5128833;27;20051;-38
2021/04/20 03:27:00;;;;;;;1.58;1.42;;;18.80;44.00;;;;;;5133862;27;20050;-38
2021/04/20 03:29:27;;;;;;;2.15;1.80;;;18.80;44.00;;;;;;5129626;27;20044;-38
2021/04/20 03:31:53;;;;;;;1.83;1.67;;;18.80;44.00;;;;;;5117913;27;20040;-38
2021/04/20 03:34:34;;;;;;;1.63;1.45;;;18.80;44.00;;;;;;5121143;27;20316;-38
2021/04/20 03:37:06;;;;;;;1.75;1.60;;;18.80;44.00;;;;;;5130087;27;20040;-37
2021/04/20 03:39:39;;;;;;;1.90;1.63;;;18.80;44.00;;;;;;5118006;27;20453;-38
2021/04/20 03:42:11;;;;;;;1.70;1.60;;;18.80;44.00;;;;;;5120788;27;20047;-38
2021/04/20 03:44:54;;;;;;;2.42;1.60;;;18.80;44.00;;;;;;5130866;27;20460;-37
2021/04/20 03:47:27;;;;;;;1.83;1.45;;;18.80;44.10;;;;;;5122890;27;20058;-38
2021/04/20 03:49:56;;;;;;;1.83;1.42;;;18.80;44.00;;;;;;5135345;27;20043;-37
2021/04/20 03:52:30;;;;;;;1.80;1.52;;;18.80;44.00;;;;;;5115927;27;20722;-38
2021/04/20 03:54:58;;;;;;;;;;;18.80;44.00;;;;;;5134431;27;20043;-37
2021/04/20 03:57:34;;;;;;;2.22;1.83;;;18.80;44.00;;;;;;5135406;27;19968;-38
2021/04/20 04:00:03;;;;;;;1.88;1.55;;;18.80;44.00;;;;;;5135127;27;20043;-38
2021/04/20 04:02:36;;;;;;;1.75;1.50;;;18.80;44.00;;;;;;5132963;27;20047;-37
2021/04/20 04:05:06;;;;;;;1.40;1.30;;;18.80;44.00;;;;;;5132949;27;20130;-37
2021/04/20 04:07:35;;;;;;;2.42;1.77;;;18.80;44.00;;;;;;5115471;27;20039;-38
2021/04/20 04:10:04;;;;;;;1.60;1.48;;;18.80;44.00;;;;;;5132321;27;20047;-37
2021/04/20 04:12:38;;;;;;;1.75;1.50;;;18.80;44.00;;;;;;5133451;27;20042;-38
2021/04/20 04:15:08;;;;;;;1.60;1.50;;;18.80;44.00;;;;;;5135062;27;20048;-38
2021/04/20 04:17:38;;;;;;;1.65;1.50;;;18.80;44.00;;;;;;5135230;27;20047;-37
2021/04/20 04:20:06;;;;;;;1.70;1.45;;;18.80;44.60;;;;;;5133979;27;20039;-37
2021/04/20 04:22:37;;;;;;;2.05;1.70;;;18.80;44.00;;;;;;5117133;27;20051;-38
2021/04/20 04:25:06;;;;;;;1.63;1.52;;;18.80;44.00;;;;;;5135085;27;20116;-37
2021/04/20 04:27:43;;;;;;;2.10;1.80;;;18.80;44.00;;;;;;5114231;28;20088;-38
2021/04/20 04:30:11;;;;;;;2.10;1.60;;;18.80;44.00;;;;;;5115992;27;20044;-38
2021/04/20 04:32:42;;;;;;;2.00;1.80;;;18.80;44.00;;;;;;5115343;27;20164;-37
2021/04/20 04:35:10;;;;;;;1.77;1.48;;;18.80;44.00;;;;;;5132718;27;20078;-37
2021/04/20 04:37:40;;;;;;;1.70;1.60;;;18.80;44.00;;;;;;5116463;27;20130;-37
2021/04/20 04:40:08;;;;;;;1.90;1.70;;;18.80;44.00;;;;;;5116665;27;20097;-38
2021/04/20 04:42:35;;;;;;;1.52;1.40;;;18.80;44.00;;;;;;5132172;27;20490;-38
2021/04/20 04:45:08;;;;;;;1.70;1.58;;;18.80;44.00;;;;;;5118494;27;20043;-38
2021/04/20 04:47:38;;;;;;;1.75;1.63;;;18.80;44.00;;;;;;5131715;27;20107;-37
2021/04/20 04:50:07;;;;;;;2.22;1.60;;;18.80;44.00;;;;;;5134021;27;20039;-37
2021/04/20 04:52:35;;;;;;;2.00;1.40;;;18.80;44.00;;;;;;5132773;27;20043;-37
2021/04/20 04:55:04;;;;;;;2.50;1.77;;;18.80;44.00;;;;;;5134508;27;20379;-37
2021/04/20 04:57:33;;;;;;;1.60;1.40;;;18.80;44.00;;;;;;5133917;27;20099;-38
2021/04/20 05:00:04;;;;;;;1.55;1.20;;;18.80;44.00;;;;;;5131732;27;20046;-37
2021/04/20 05:02:31;;;;;;;1.60;1.50;;;18.80;44.00;;;;;;5134201;27;20457;-37
2021/04/20 05:05:07;;;;;;;2.10;1.58;;;18.80;44.00;;;;;;5131715;27;20111;-37
2021/04/20 05:07:34;;;;;;;1.40;1.30;;;18.80;44.00;;;;;;5133723;27;20509;-38
2021/04/20 05:10:06;;;;;;;1.80;1.60;;;18.80;44.00;;;;;;5132372;27;20047;-38
2021/04/20 05:12:34;;;;;;;1.40;1.30;;;18.80;44.00;;;;;;5131190;27;20070;-37
2021/04/20 05:15:12;;;;;;;2.25;1.50;;;18.80;44.00;;;;;;5132414;27;20100;-38
2021/04/20 05:17:43;;;;;;;1.55;1.45;;;18.80;44.00;;;;;;5124456;27;20059;-37
2021/04/20 05:20:13;;;;;;;1.73;1.60;;;18.80;44.00;;;;;;5115304;27;20044;-38
2021/04/20 05:22:39;;;;;;;1.50;1.20;;;18.80;44.00;;;;;;5116510;27;20051;-38
2021/04/20 05:25:15;;;;;;;2.40;1.90;;;18.80;44.00;;;;;;5124069;27;20120;-38
2021/04/20 05:27:48;;;;;;;1.55;1.40;;;18.80;44.60;;;;;;5114622;27;20095;-38
2021/04/20 05:30:16;;;;;;;2.17;1.60;;;18.80;44.00;;;;;;5131734;27;20051;-38
2021/04/20 05:32:52;;;;;;;1.65;1.55;;;18.80;44.00;;;;;;5133348;27;20096;-38
2021/04/20 05:35:23;;;;;;;1.50;1.40;;;18.80;44.00;;;;;;5132986;27;20406;-39
2021/04/20 05:37:50;;;;;;;1.65;1.50;;;18.80;44.00;;;;;;5130939;27;20039;-39
2021/04/20 05:40:20;;;;;;;1.58;1.40;;;18.80;44.00;;;;;;5133428;27;20121;-39
2021/04/20 05:42:46;;;;;;;1.73;1.50;;;18.80;44.00;;;;;;5133308;27;20047;-38
2021/04/20 05:45:16;;;;;;;1.98;1.75;;;18.80;44.00;;;;;;5130677;27;20043;-39
2021/04/20 05:47:45;;;;;;;1.50;1.40;;;18.80;44.00;;;;;;5130470;27;20403;-38
2021/04/20 05:50:24;;;;;;;1.80;1.50;;;18.80;44.00;;;;;;5132079;27;20043;-37
2021/04/20 05:52:51;;;;;;;1.70;1.60;;;18.80;44.00;;;;;;5131935;27;20104;-38
2021/04/20 05:55:18;;;;;;;1.73;1.55;;;18.80;44.00;;;;;;5131699;27;20035;-40
2021/04/20 05:57:46;;;;;;;2.03;1.50;;;18.80;44.00;;;;;;5131657;27;20077;-39
2021/04/20 06:00:14;;;;;;;1.88;1.60;;;18.80;44.00;;;;;;5132669;27;20513;-38
2021/04/20 06:02:41;;;;;;;1.63;1.30;;;18.80;44.00;;;;;;5115598;28;20099;-38
2021/04/20 06:05:13;;;;;;;2.20;1.70;;;18.80;44.00;;;;;;5115154;28;20066;-39
2021/04/20 06:07:44;;;;;;;1.80;1.50;;;18.80;44.00;;;;;;5113896;27;20051;-39
2021/04/20 06:10:12;;;;;;;2.22;1.60;;;18.80;44.00;;;;;;5112928;28;20136;-39
2021/04/20 06:12:40;;;;;;;2.22;1.42;;;18.80;44.00;;;;;;5113449;27;20040;-38
2021/04/20 06:15:08;;;;;;;2.42;1.42;;;18.80;44.00;;;;;;5114571;28;20047;-38
2021/04/20 06:17:38;;;;;;;1.63;1.30;;;18.80;44.00;;;;;;5114597;28;20046;-38
2021/04/20 06:20:08;;;;;;;1.98;1.55;;;18.80;44.00;;;;;;5129674;28;20503;-38
2021/04/20 06:22:36;;;;;;;1.70;1.40;;;18.80;44.00;;;;;;5131086;28;20043;-38
2021/04/20 06:25:04;;;;;;;1.75;1.40;;;18.80;44.00;;;;;;5131185;28;20073;-38
2021/04/20 06:27:30;;;;;;;1.70;1.48;;;18.80;44.00;;;;;;5131079;28;20055;-39
2021/04/20 06:29:58;;;;;;;1.88;1.67;;;18.80;44.00;;;;;;5129782;28;20043;-39
2021/04/20 06:32:26;;;;;;;1.92;1.70;;;18.80;44.00;;;;;;5132819;28;20047;-37
2021/04/20 06:34:53;;;;;;;1.67;1.38;;;18.80;44.00;;;;;;5124512;28;20563;-38
2021/04/20 06:37:19;;;;;;;1.50;1.40;;;18.80;44.00;;;;;;5120900;28;20039;-37
2021/04/20 06:39:46;;;;;;;1.50;1.27;;;18.80;44.00;;;;;;5115565;28;20075;-38
2021/04/20 06:42:20;;;;;;;1.40;1.20;;;18.80;44.00;;;;;;5114287;28;20126;-38
2021/04/20 06:45:02;;;;;;;2.23;1.40;;;18.80;44.00;;;;;;5121095;28;20062;-37
2021/04/20 06:47:54;;;;;;;1.60;1.30;;;18.80;44.00;;;;;;5130020;28;20284;-39
2021/04/20 06:50:23;;;;;;;1.60;1.50;;;18.80;44.00;;;;;;5118995;28;20051;-38
2021/04/20 06:52:58;;;;;;;1.65;1.55;;;18.80;44.00;;;;;;5129777;28;20251;-39
2021/04/20 06:55:45;;;;;;;1.50;1.40;;;18.80;44.00;;;;;;5129180;28;20459;-39
2021/04/20 06:58:49;;;;;;;1.67;1.35;;;18.80;44.00;;;;;;5112896;28;20126;-39
2021/04/20 07:01:22;;;;;;;2.22;1.50;;;18.90;44.00;;;;;;5133044;27;20073;-39
2021/04/20 07:04:10;;;;;;;1.40;1.30;;;18.80;44.00;;;;;;5136749;27;20047;-39
2021/04/20 07:07:03;;;;;;;1.40;1.20;;;18.80;44.00;;;;;;5134998;27;20122;-39
2021/04/20 07:09:32;;;;;;;1.50;1.20;;;18.80;44.00;;;;;;5076925;27;20119;-40
2021/04/20 07:12:00;;;;;;;1.52;1.40;;;18.80;44.00;;;;;;5117690;27;20044;-38
2021/04/20 07:14:34;;;;;;;1.70;1.45;;;18.80;44.00;;;;;;5136188;27;20114;-39
2021/04/20 07:17:18;;;;;;;1.50;1.40;;;18.80;44.00;;;;;;5116698;27;20492;-37
2021/04/20 07:20:13;;;;;;;1.50;1.40;;;18.80;44.00;;;;;;5117440;27;20097;-38
2021/04/20 07:22:49;;;;;;;1.95;1.50;;;18.80;44.00;;;;;;5120794;27;20112;-38
2021/04/20 07:25:53;;;;;;;1.60;1.50;;;18.80;44.00;;;;;;5132641;27;20061;-37
2021/04/20 07:28:38;;;;;;;2.10;1.55;;;18.80;44.00;;;;;;5119036;27;20073;-38
2021/04/20 07:31:43;;;;;;;2.33;1.88;;;18.80;44.00;;;;;;5126310;27;20103;-39
2021/04/20 07:34:19;;;;;;;2.60;1.53;;;18.80;44.00;;;;;;5135649;27;20051;-38
2021/04/20 07:37:04;;;;;;;1.42;1.30;;;18.80;44.00;;;;;;5117628;27;20043;-39
2021/04/20 07:39:38;;;;;;;1.70;1.50;;;18.80;44.00;;;;;;5133687;27;20571;-41
2021/04/20 07:42:22;;;;;;;1.48;1.38;;;18.80;44.00;;;;;;5132834;27;20043;-40
2021/04/20 07:45:13;;;;;;;;;;;18.80;44.00;;;;;;5136052;27;20043;-40
2021/04/20 07:47:49;;;;;;;1.90;1.42;;;18.80;44.00;;;;;;5114066;27;19920;-39
2021/04/20 07:50:20;;;;;;;1.92;1.50;;;18.80;44.00;;;;;;5135323;27;20043;-40
2021/04/20 07:52:50;;;;;;;1.55;1.33;;;18.80;44.00;;;;;;5133140;27;20456;-39
2021/04/20 07:55:31;;;;;;;1.20;1.10;;;18.80;44.00;;;;;;5133005;27;20043;-41
2021/04/20 07:58:03;;;;;;;1.52;1.40;;;18.80;44.00;;;;;;5132928;27;20043;-39
2021/04/20 08:00:37;;;;;;;1.83;1.50;;;18.80;44.00;;;;;;5133995;27;20509;-40
2021/04/20 08:03:08;;;;;;;1.58;1.35;;;18.80;44.00;;;;;;5133068;27;20103;-38
2021/04/20 08:05:56;;;;;;;2.08;1.40;;;18.80;44.00;;;;;;5116550;27;20466;-38
2021/04/20 08:08:29;;;;;;;1.35;1.25;;;18.80;44.00;;;;;;5134161;27;20100;-40
2021/04/20 08:11:10;;;;;;;1.80;1.42;;;18.80;44.00;;;;;;5132268;27;20092;-38
2021/04/20 08:13:51;;;;;;;1.77;1.67;;;18.80;44.00;;;;;;5117845;27;20079;-39
2021/04/20 08:16:41;;;;;;;1.45;1.35;;;18.80;44.00;;;;;;5118194;27;20428;-39
2021/04/20 08:19:18;;;;;;;1.85;1.40;;;18.80;44.00;;;;;;5119638;27;20100;-38
2021/04/20 08:21:49;;;;;;;1.67;1.40;;;18.80;44.00;;;;;;5129566;27;20051;-38
2021/04/20 08:24:26;;;;;;;1.90;1.63;;;18.80;44.00;;;;;;5120637;27;20051;-39
2021/04/20 08:27:04;;;;;;;1.52;1.25;;;18.80;44.00;;;;;;5132098;27;20039;-39
2021/04/20 08:29:33;;;;;;;1.58;1.20;;;18.80;44.00;;;;;;5134296;27;20047;-39
2021/04/20 08:32:06;;;;;;;1.95;1.38;;;18.80;44.00;;;;;;5134750;27;20506;-39
2021/04/20 08:34:47;;;;;;;1.80;1.58;;;18.80;44.00;;;;;;5112465;27;20509;-40
2021/04/20 08:37:36;;;;;;;1.50;1.40;;;18.80;44.00;;;;;;5119641;27;20100;-39
2021/04/20 08:40:19;;;;;;;1.30;1.20;;;18.80;44.00;;;;;;5134278;27;20088;-40
2021/04/20 08:43:19;;;;;;;1.90;1.38;;;18.90;44.00;;;;;;5131971;27;20047;-38
2021/04/20 08:46:03;;;;;;;1.40;1.17;;;18.80;44.00;;;;;;5133126;27;20557;-39
2021/04/20 08:48:55;;;;;;;1.52;1.40;;;18.90;44.00;;;;;;5120093;27;20055;-40
2021/04/20 08:52:01;;;;;;;1.60;1.30;;;18.80;44.00;;;;;;5132662;27;20043;-39
2021/04/20 08:55:18;;;;;;;1.50;1.23;;;18.80;44.00;;;;;;5129803;27;20119;-38
2021/04/20 08:58:16;;;;;;;1.52;1.30;;;18.80;44.00;;;;;;5037968;28;20041;-39
2021/04/20 09:00:51;;;;;;;1.48;1.30;;;18.90;44.10;;;;;;5050459;28;20045;-39
2021/04/20 09:03:48;;;;;;;1.63;1.30;;;18.80;44.00;;;;;;5050641;28;20044;-39
2021/04/20 09:06:28;;;;;;;1.73;1.38;;;18.80;44.00;;;;;;5050804;28;20052;-39
2021/04/20 09:09:06;;;;;;;1.83;1.55;;;18.80;44.00;;;;;;5049378;28;20087;-37
2021/04/20 09:11:44;;;;;;;1.60;1.38;;;18.80;44.00;;;;;;5034477;28;20041;-38
2021/04/20 09:14:25;;;;;;;1.85;1.50;;;18.80;44.00;;;;;;5039128;28;20081;-38
2021/04/20 09:16:58;;;;;;;1.35;1.10;;;18.80;44.00;;;;;;5033960;28;20076;-38
2021/04/20 09:19:31;;;;;;;1.60;1.50;;;18.80;44.00;;;;;;5035498;28;20164;-38
2021/04/20 09:22:25;;;;;;;1.75;1.25;;;18.80;44.00;;;;;;5047007;28;20076;-40
2021/04/20 09:25:05;;;;;;;1.63;1.23;;;18.80;44.00;;;;;;5035321;28;20064;-39
2021/04/20 09:27:34;;;;;;;1.38;1.27;;;18.80;44.00;;;;;;5057732;27;20489;-42
2021/04/20 09:30:11;;;;;;;1.58;1.20;;;18.80;44.00;;;;;;5130590;27;20092;-38
2021/04/20 09:32:46;;;;;;;1.23;1.10;;;18.80;44.00;;;;;;5115386;27;20075;-39
2021/04/20 09:35:14;;;;;;;2.08;1.58;;;18.80;44.00;;;;;;5123820;27;20414;-39
2021/04/20 09:37:43;;;;;;;2.10;1.40;;;18.80;44.00;;;;;;5132672;27;20057;-38
2021/04/20 09:40:19;;;;;;;2.42;1.30;;;18.80;44.00;;;;;;5131039;27;20047;-38
2021/04/20 09:42:52;;;;;;;1.48;1.33;;;18.80;44.00;;;;;;5130698;27;20123;-38
2021/04/20 09:45:26;;;;;;;1.40;1.30;;;18.80;44.00;;;;;;5131003;27;20071;-38
2021/04/20 09:48:19;;;;;;;1.60;1.33;;;18.80;44.00;;;;;;5130673;27;20498;-38
2021/04/20 09:51:05;;;;;;;1.65;1.23;;;18.80;44.00;;;;;;5132913;27;20047;-37
2021/04/20 09:53:59;;;;;;;1.70;1.40;;;18.80;44.00;;;;;;5131046;27;20054;-38
2021/04/20 09:56:42;;;;;;;1.63;1.42;;;18.80;44.00;;;;;;5101080;27;20040;-39
2021/04/20 09:59:42;;;;;;;1.95;1.50;;;18.80;44.00;;;;;;5116098;27;20047;-38
2021/04/20 10:02:17;;;;;;;1.70;1.40;;;18.80;44.00;;;;;;5116433;27;20408;-38
2021/04/20 10:05:02;;;;;;;1.63;1.40;;;18.80;44.00;;;;;;5119782;28;20401;-38
2021/04/20 10:08:15;;;;;;;2.08;1.55;;;18.80;44.00;;;;;;5130936;27;20043;-39
2021/04/20 10:11:03;;;;;;;1.45;1.20;;;18.80;44.00;;;;;;5120827;27;20486;-39
2021/04/20 10:13:55;;;;;;;1.27;1.10;;;18.80;44.00;;;;;;5116133;27;20043;-40
2021/04/20 10:16:55;;;;;;;1.65;1.40;;;18.80;44.00;;;;;;5132379;27;20051;-39
2021/04/20 10:19:47;;;;;;;1.83;1.40;;;18.80;44.00;;;;;;5112622;28;20126;-38
2021/04/20 10:22:35;;;;;;;1.50;1.38;;;18.80;44.00;;;;;;5115653;28;20044;-39
2021/04/20 10:25:14;;;;;;;1.42;1.33;;;18.80;44.00;;;;;;5130449;28;20047;-38
2021/04/20 10:27:45;;;;;;;1.30;1.20;;;18.80;44.00;;;;;;5130211;28;20478;-39
2021/04/20 10:30:19;;;;;;;1.58;1.40;;;18.80;44.00;;;;;;5130176;28;20051;-39
2021/04/20 10:32:51;;;;;;;1.80;1.30;;;18.80;44.00;;;;;;5130310;28;20035;-39
2021/04/20 10:35:26;;;;;;;1.45;1.30;;;18.80;44.00;;;;;;5133272;27;20091;-38
2021/04/20 10:37:56;;;;;;;1.30;1.20;;;18.80;44.00;;;;;;5134530;27;20047;-39
2021/04/20 10:40:35;;;;;;;2.17;1.60;;;18.80;44.00;;;;;;5135585;27;20704;-39
2021/04/20 10:43:11;;;;;;;1.50;1.38;;;18.80;44.00;;;;;;5134274;27;20581;-40
2021/04/20 10:45:40;;;;;;;1.45;1.20;;;18.80;44.00;;;;;;5136616;27;20054;-39
2021/04/20 10:48:09;;;;;;;1.48;1.33;;;18.80;44.00;;;;;;5117248;27;20047;-38
2021/04/20 10:50:39;;;;;;;1.30;1.20;;;18.90;44.10;;;;;;5135025;27;20486;-39
2021/04/20 10:53:11;;;;;;;1.55;1.20;;;18.90;44.10;;;;;;5135503;27;20561;-38
2021/04/20 10:55:45;;;;;;;1.70;1.52;;;18.80;44.00;;;;;;5136774;27;20134;-39
2021/04/20 10:58:13;;;;;;;1.80;1.35;;;18.80;44.00;;;;;;5132901;27;20039;-39
2021/04/20 11:00:40;;;;;;;1.75;1.35;;;18.90;44.10;;;;;;5119282;27;20047;-38
2021/04/20 11:03:08;;;;;;;1.70;1.50;;;18.80;44.00;;;;;;5118856;27;20066;-39
2021/04/20 11:05:35;;;;;;;1.42;1.33;;;18.90;44.10;;;;;;5118905;27;20088;-39
2021/04/20 11:08:03;;;;;;;1.92;1.27;;;18.90;44.10;;;;;;5117174;27;20469;-39
2021/04/20 11:10:36;;;;;;;1.58;1.40;;;18.90;44.10;;;;;;5134559;27;20043;-39
2021/04/20 11:13:07;;;;;;;1.42;1.33;;;18.90;44.10;;;;;;5116584;27;20044;-38
2021/04/20 11:15:34;;;;;;;1.23;1.13;;;18.90;44.00;;;;;;5133878;27;20055;-38
2021/04/20 11:18:08;;;;;;;1.58;1.48;;;18.90;44.10;;;;;;5118142;27;20134;-38
2021/04/20 11:20:43;;;;;;;1.33;1.23;;;18.90;44.10;;;;;;5116999;27;20047;-39
2021/04/20 11:23:09;;;;;;;1.42;1.33;;;18.90;44.00;;;;;;5135073;27;20436;-39
2021/04/20 11:25:52;;;;;;;1.38;1.27;;;18.90;44.00;;;;;;5133467;27;20051;-38
2021/04/20 11:28:27;;;;;;;1.48;1.30;;;18.90;44.00;;;;;;5133752;27;20054;-39
2021/04/20 11:30:55;;;;;;;2.03;1.40;;;18.90;44.10;;;;;;5133587;27;20047;-39
2021/04/20 11:33:41;;;;;;;1.60;1.50;;;18.90;44.00;;;;;;5134080;27;20092;-39
2021/04/20 11:36:20;;;;;;;1.60;1.30;;;18.90;44.00;;;;;;5133080;27;20092;-39
2021/04/20 11:38:51;;;;;;;2.05;1.55;;;18.90;44.00;;;;;;5135542;27;20051;-39
2021/04/20 11:41:26;;;;;;;1.52;1.35;;;18.90;44.00;;;;;;5134603;27;20043;-38
2021/04/20 11:44:02;;;;;;;2.00;1.23;;;18.90;44.00;;;;;;5133534;27;20051;-39
2021/04/20 11:46:32;;;;;;;2.17;1.67;;;18.90;44.00;;;;;;5132633;27;20470;-39
2021/04/20 11:49:27;;;;;;;1.60;1.42;;;18.90;44.00;;;;;;5134988;27;20039;-38
2021/04/20 11:51:57;;;;;;;1.98;1.45;;;18.90;44.00;;;;;;5116719;27;20055;-38
2021/04/20 11:54:35;;;;;;;2.25;1.70;;;18.90;44.00;;;;;;5133956;27;20089;-38
2021/04/20 11:57:05;;;;;;;1.55;1.33;;;18.90;44.00;;;;;;5115473;27;20104;-39
2021/04/20 11:59:33;;;;;;;1.63;1.20;;;18.90;44.00;;;;;;5135055;27;20130;-39
2021/04/20 12:02:01;;;;;;;2.20;1.50;;;18.90;44.00;;;;;;5135078;27;20495;-38
2021/04/20 12:04:39;;;;;;;1.92;1.58;;;18.90;44.00;;;;;;5115802;27;20074;-38
2021/04/20 12:07:07;;;;;;;2.10;1.40;;;18.90;44.00;;;;;;5116287;27;20066;-38
2021/04/20 12:09:39;;;;;;;1.90;1.60;;;18.90;44.00;;;;;;5134948;27;20047;-39
2021/04/20 12:12:08;;;;;;;1.65;1.48;;;18.90;44.00;;;;;;5134270;27;20092;-38
2021/04/20 12:14:43;;;;;;;1.63;1.45;;;18.90;44.00;;;;;;5133899;27;20077;-38
2021/04/20 12:17:10;;;;;;;2.05;1.50;;;18.90;44.00;;;;;;5116341;27;20051;-38
2021/04/20 12:19:38;;;;;;;1.77;1.35;;;18.90;44.00;;;;;;5134877;27;20054;-38
2021/04/20 12:22:06;;;;;;;1.63;1.50;;;19.00;44.10;;;;;;5133024;27;20096;-38
2021/04/20 12:24:41;;;;;;;1.73;1.33;;;18.90;44.00;;;;;;5132313;27;20051;-39
2021/04/20 12:27:08;;;;;;;1.85;1.70;;;18.90;44.00;;;;;;5133454;27;20047;-39
2021/04/20 12:29:45;;;;;;;2.00;1.60;;;19.00;44.10;;;;;;5132036;27;20100;-38
2021/04/20 12:32:21;;;;;;;1.70;1.60;;;19.00;44.10;;;;;;5131111;27;20039;-38
2021/04/20 12:35:00;;;;;;;2.42;1.80;;;19.00;44.10;;;;;;5133752;27;20046;-37
2021/04/20 12:37:30;;;;;;;2.15;1.58;;;18.90;44.00;;;;;;5133983;27;20434;-37
2021/04/20 12:40:13;;;;;;;1.70;1.42;;;19.00;44.10;;;;;;5134841;27;20491;-37
2021/04/20 12:42:47;;;;;;;1.60;1.50;;;19.00;44.10;;;;;;5133889;27;20051;-37
2021/04/20 12:45:21;;;;;;;2.60;1.60;;;19.00;44.00;;;;;;5115921;27;20069;-38
2021/04/20 12:47:49;;;;;;;1.17;1.02;;;19.00;44.00;;;;;;5112520;28;20089;-38
2021/04/20 12:50:21;;;;;;;1.88;1.67;;;19.00;44.00;;;;;;5132452;27;20039;-38
2021/04/20 12:52:49;;;;;;;1.77;1.55;;;19.00;44.10;;;;;;5117694;27;20047;-38
2021/04/20 12:55:21;;;;;;;2.08;1.50;;;19.00;44.10;;;;;;5133180;27;20440;-38
2021/04/20 12:57:50;;;;;;;2.03;1.63;;;19.00;44.00;;;;;;5111202;28;20453;-38
2021/04/20 13:00:17;;;;;;;2.35;1.70;;;19.00;44.00;;;;;;5115631;27;20492;-38
2021/04/20 13:02:47;;;;;;;1.80;1.52;;;19.00;44.00;;;;;;5110428;27;20047;-38
2021/04/20 13:05:19;;;;;;;1.52;1.38;;;19.00;44.00;;;;;;5116043;27;20079;-38
2021/04/20 13:07:46;;;;;;;1.90;1.50;;;19.00;44.00;;;;;;5119732;27;20047;-38
2021/04/20 13:10:19;;;;;;;2.08;1.67;;;19.00;44.00;;;;;;5126032;27;20047;-38
2021/04/20 13:12:54;;;;;;;1.92;1.70;;;19.10;44.10;;;;;;5133880;27;20043;-38
2021/04/20 13:15:22;;;;;;;2.35;1.55;;;19.00;44.00;;;;;;5103807;28;20445;-38
2021/04/20 13:17:52;;;;;;;1.75;1.48;;;19.00;44.00;;;;;;5125276;27;20047;-38
2021/04/20 13:20:40;;;;;;;1.67;1.58;;;19.00;44.00;;;;;;5133042;27;20414;-38